createdAt,value
2022-10-20T00:01:29.131Z,79.50
2022-10-20T00:03:57.005Z,79.30
2022-10-20T00:06:32.113Z,79.30
2022-10-20T00:09:03.133Z,79.50
2022-10-20T00:11:32.040Z,79.70
2022-10-20T00:14:01.673Z,80.00
2022-10-20T00:16:31.721Z,80.30
2022-10-20T00:18:59.468Z,80.40
2022-10-20T00:21:29.291Z,80.20
2022-10-20T00:23:59.893Z,80.20
2022-10-20T00:26:29.828Z,80.80
2022-10-20T00:28:58.249Z,80.80
2022-10-20T00:31:26.276Z,80.90
2022-10-20T00:33:54.459Z,81.30
2022-10-20T00:36:23.666Z,80.80
2022-10-20T00:38:56.108Z,80.70
2022-10-20T00:41:23.321Z,81.20
2022-10-20T00:44:00.832Z,81.00
2022-10-20T00:46:41.470Z,81.30
2022-10-20T00:49:25.506Z,81.20
2022-10-20T00:51:55.067Z,81.90
2022-10-20T00:54:29.081Z,81.50
2022-10-20T00:56:59.047Z,81.50
2022-10-20T00:59:33.968Z,82.50
2022-10-20T01:02:02.861Z,82.20
2022-10-20T01:04:31.843Z,82.30
2022-10-20T01:06:59.612Z,82.50
2022-10-20T01:09:28.257Z,82.40
2022-10-20T01:12:05.820Z,82.90
2022-10-20T01:15:15.951Z,82.70
2022-10-20T01:17:54.527Z,82.50
2022-10-20T01:20:55.898Z,82.40
2022-10-20T01:24:12.284Z,82.40
2022-10-20T01:27:13.282Z,82.80
2022-10-20T01:30:00.147Z,82.70
2022-10-20T01:32:38.484Z,83.00
2022-10-20T01:35:44.140Z,82.90
2022-10-20T01:38:41.322Z,83.40
2022-10-20T01:41:34.377Z,83.40
2022-10-20T01:44:10.004Z,83.00
2022-10-20T01:46:42.027Z,82.90
2022-10-20T01:49:10.461Z,83.10
2022-10-20T01:54:07.387Z,83.40
2022-10-20T01:57:14.670Z,83.40
2022-10-20T02:00:11.570Z,83.50
2022-10-20T02:03:31.818Z,83.60
2022-10-20T02:06:18.663Z,83.50
2022-10-20T02:08:55.940Z,83.60
2022-10-20T02:11:38.181Z,83.70
2022-10-20T02:14:09.887Z,83.80
2022-10-20T02:16:49.014Z,84.00
2022-10-20T02:19:22.402Z,84.00
2022-10-20T02:21:52.833Z,84.00
2022-10-20T02:24:26.947Z,84.00
2022-10-20T02:26:59.018Z,83.90
2022-10-20T02:29:37.371Z,84.00
2022-10-20T02:32:05.091Z,83.90
2022-10-20T02:34:32.788Z,84.10
2022-10-20T02:37:00.032Z,84.60
2022-10-20T02:39:27.800Z,83.80
2022-10-20T02:41:55.194Z,84.10
2022-10-20T02:44:23.121Z,84.00
2022-10-20T02:46:50.501Z,84.10
2022-10-20T02:49:18.058Z,84.30
2022-10-20T02:51:45.316Z,84.30
2022-10-20T02:54:12.493Z,84.40
2022-10-20T02:56:39.852Z,84.50
2022-10-20T02:59:07.091Z,84.60
2022-10-20T03:01:34.456Z,84.60
2022-10-20T03:04:04.166Z,84.60
2022-10-20T03:06:31.479Z,84.60
2022-10-20T03:08:58.844Z,84.60
2022-10-20T03:11:26.169Z,84.60
2022-10-20T03:13:53.466Z,84.60
2022-10-20T03:16:20.962Z,84.60
2022-10-20T03:18:48.351Z,84.50
2022-10-20T03:21:15.596Z,84.60
2022-10-20T03:23:42.886Z,84.40
2022-10-20T03:26:12.047Z,84.30
2022-10-20T03:28:40.515Z,84.60
2022-10-20T03:31:08.821Z,84.50
2022-10-20T03:33:36.487Z,84.40
2022-10-20T03:36:04.707Z,84.50
2022-10-20T03:38:32.041Z,84.60
2022-10-20T03:40:59.437Z,84.40
2022-10-20T03:43:26.798Z,84.50
2022-10-20T03:46:07.745Z,84.10
2022-10-20T03:48:36.003Z,84.00
2022-10-20T03:51:05.382Z,84.00
2022-10-20T03:53:33.902Z,84.00
2022-10-20T03:56:06.362Z,84.00
2022-10-20T03:58:33.847Z,84.00
2022-10-20T04:01:03.819Z,83.90
2022-10-20T04:03:31.523Z,83.90
2022-10-20T04:05:58.903Z,84.30
2022-10-20T04:08:26.221Z,84.40
2022-10-20T04:10:53.459Z,84.40
2022-10-20T04:13:20.697Z,84.40
2022-10-20T04:15:47.930Z,84.50
2022-10-20T04:18:15.175Z,84.60
2022-10-20T04:20:44.515Z,84.70
2022-10-20T04:23:12.576Z,84.90
2022-10-20T04:25:47.702Z,84.90
2022-10-20T04:28:18.825Z,85.10
2022-10-20T04:30:47.563Z,85.10
2022-10-20T04:33:15.177Z,85.30
2022-10-20T04:35:43.469Z,85.40
2022-10-20T04:38:10.837Z,85.40
2022-10-20T04:40:38.279Z,85.50
2022-10-20T04:43:05.551Z,85.50
2022-10-20T04:45:32.909Z,85.60
2022-10-20T04:48:00.283Z,85.80
2022-10-20T04:50:35.920Z,85.90
2022-10-20T04:53:03.355Z,85.90
2022-10-20T04:55:30.636Z,85.90
2022-10-20T04:57:58.431Z,86.10
2022-10-20T05:00:25.965Z,86.20
2022-10-20T05:02:53.267Z,86.30
2022-10-20T05:05:20.808Z,86.40
2022-10-20T05:07:48.060Z,86.40
2022-10-20T05:10:15.375Z,86.50
2022-10-20T05:12:42.651Z,86.50
2022-10-20T05:15:10.196Z,86.50
2022-10-20T05:17:37.729Z,86.50
2022-10-20T05:20:06.051Z,86.50
2022-10-20T05:22:33.407Z,86.50
2022-10-20T05:25:24.512Z,86.60
2022-10-20T05:27:48.291Z,86.50
2022-10-20T05:30:15.707Z,86.60
2022-10-20T05:32:42.945Z,86.50
2022-10-20T05:35:10.234Z,86.60
2022-10-20T05:37:39.180Z,86.70
2022-10-20T05:40:07.763Z,87.30
2022-10-20T05:42:35.323Z,86.60
2022-10-20T05:45:03.120Z,86.70
2022-10-20T05:47:30.588Z,86.90
2022-10-20T05:49:58.289Z,86.90
2022-10-20T05:52:25.643Z,86.90
2022-10-20T05:54:52.937Z,86.90
2022-10-20T05:57:20.185Z,86.90
2022-10-20T05:59:47.409Z,86.90
2022-10-20T06:02:14.629Z,87.00
2022-10-20T06:04:41.888Z,87.00
2022-10-20T06:07:10.138Z,87.10
2022-10-20T06:09:39.175Z,87.00
2022-10-20T06:14:41.026Z,87.00
2022-10-20T06:17:09.492Z,86.80
2022-10-20T06:19:36.656Z,86.70
2022-10-20T06:22:06.797Z,86.80
2022-10-20T06:24:34.684Z,86.60
2022-10-20T06:27:02.116Z,86.50
2022-10-20T06:29:29.380Z,86.60
2022-10-20T06:31:57.135Z,86.50
2022-10-20T06:34:27.426Z,86.40
2022-10-20T06:36:54.820Z,86.20
2022-10-20T06:39:25.272Z,86.20
2022-10-20T06:41:54.852Z,86.10
2022-10-20T06:44:24.936Z,85.90
2022-10-20T06:46:52.671Z,86.00
2022-10-20T06:49:20.975Z,85.80
2022-10-20T06:51:48.433Z,86.10
2022-10-20T06:54:16.409Z,85.20
2022-10-20T06:56:44.173Z,83.80
2022-10-20T06:59:11.734Z,81.40
2022-10-20T07:01:40.119Z,78.90
2022-10-20T07:04:17.065Z,75.40
2022-10-20T07:06:46.199Z,73.30
2022-10-20T07:09:17.524Z,70.50
2022-10-20T07:11:46.029Z,67.80
2022-10-20T07:14:14.197Z,66.60
2022-10-20T07:16:41.550Z,65.70
2022-10-20T07:19:09.309Z,64.90
2022-10-20T07:21:39.119Z,64.40
2022-10-20T07:24:09.379Z,63.90
2022-10-20T07:26:40.669Z,64.20
2022-10-20T07:29:12.398Z,63.70
2022-10-20T07:31:46.397Z,64.00
2022-10-20T07:34:27.143Z,63.80
2022-10-20T07:36:57.058Z,63.60
2022-10-20T07:39:25.466Z,63.50
2022-10-20T07:41:54.737Z,63.90
2022-10-20T07:44:22.274Z,63.90
2022-10-20T07:46:50.200Z,63.80
2022-10-20T07:49:42.842Z,64.10
2022-10-20T07:52:05.145Z,64.90
2022-10-20T07:54:32.764Z,64.00
2022-10-20T07:56:59.944Z,64.00
2022-10-20T07:59:27.231Z,64.00
2022-10-20T08:01:57.427Z,63.40
2022-10-20T08:04:26.166Z,63.30
2022-10-20T08:06:53.709Z,62.90
2022-10-20T08:09:21.026Z,62.70
2022-10-20T08:11:51.443Z,62.60
2022-10-20T08:14:21.803Z,62.20
2022-10-20T08:16:55.417Z,62.20
2022-10-20T08:19:29.838Z,62.20
2022-10-20T08:21:57.269Z,62.00
2022-10-20T08:24:24.478Z,61.90
2022-10-20T08:26:51.778Z,61.80
2022-10-20T08:29:19.095Z,62.00
2022-10-20T08:31:46.299Z,62.00
2022-10-20T08:34:13.508Z,61.40
2022-10-20T08:36:40.721Z,61.30
2022-10-20T08:39:08.059Z,61.20
2022-10-20T08:42:06.218Z,60.80
2022-10-20T08:44:35.125Z,60.40
2022-10-20T08:47:06.067Z,60.40
2022-10-20T08:49:35.501Z,60.40
2022-10-20T08:52:03.701Z,60.40
2022-10-20T08:54:34.555Z,60.40
2022-10-20T08:57:02.017Z,60.40
2022-10-20T08:59:39.976Z,60.40
2022-10-20T09:02:17.667Z,60.70
2022-10-20T09:04:55.850Z,60.60
2022-10-20T09:07:25.386Z,60.60
2022-10-20T09:09:58.140Z,60.60
2022-10-20T09:12:30.255Z,60.60
2022-10-20T09:14:58.304Z,60.70
2022-10-20T09:17:25.759Z,60.70
2022-10-20T09:19:58.600Z,60.40
2022-10-20T09:22:35.517Z,60.30
2022-10-20T09:25:04.989Z,60.20
2022-10-20T09:27:36.125Z,60.10
2022-10-20T09:30:35.672Z,60.20
2022-10-20T09:33:32.899Z,60.50
2022-10-20T09:36:10.584Z,60.10
2022-10-20T09:38:43.432Z,60.10
2022-10-20T09:41:23.922Z,59.90
2022-10-20T09:43:58.740Z,59.50
2022-10-20T09:46:32.520Z,59.20
2022-10-20T09:49:00.188Z,59.20
2022-10-20T09:51:30.157Z,59.40
2022-10-20T09:54:15.175Z,59.40
2022-10-20T09:56:46.785Z,59.30
2022-10-20T09:59:40.409Z,59.10
2022-10-20T10:02:16.470Z,59.00
2022-10-20T10:04:47.604Z,58.90
2022-10-20T10:07:26.642Z,58.80
2022-10-20T10:10:25.244Z,59.20
2022-10-20T10:12:55.974Z,58.20
2022-10-20T10:15:23.320Z,58.30
2022-10-20T10:17:51.700Z,58.10
2022-10-20T10:20:38.444Z,57.90
2022-10-20T10:23:34.116Z,57.70
2022-10-20T10:26:03.111Z,57.70
2022-10-20T10:28:40.307Z,57.60
2022-10-20T10:31:20.099Z,57.40
2022-10-20T10:33:51.091Z,57.30
2022-10-20T10:36:36.069Z,57.20
2022-10-20T10:39:07.375Z,57.10
2022-10-20T10:44:50.458Z,56.50
2022-10-20T10:47:54.881Z,56.30
2022-10-20T10:50:48.191Z,56.20
2022-10-20T10:53:48.518Z,56.30
2022-10-20T10:56:24.605Z,56.30
2022-10-20T10:59:21.905Z,56.00
2022-10-20T11:02:22.779Z,55.70
2022-10-20T11:05:28.245Z,55.60
2022-10-20T11:08:30.796Z,55.40
2022-10-20T11:11:59.735Z,55.20
2022-10-20T11:15:08.621Z,54.70
2022-10-20T11:18:09.797Z,53.80
2022-10-20T11:20:53.082Z,53.00
2022-10-20T11:23:57.129Z,52.40
2022-10-20T11:26:35.111Z,51.20
2022-10-20T11:29:10.819Z,50.40
2022-10-20T11:31:54.734Z,50.00
2022-10-20T11:34:38.750Z,49.80
2022-10-20T11:37:24.923Z,48.90
2022-10-20T11:40:05.929Z,48.10
2022-10-20T11:42:53.800Z,48.70
2022-10-20T11:45:39.680Z,49.30
2022-10-20T11:48:52.476Z,49.60
2022-10-20T11:52:02.621Z,50.10
2022-10-20T11:55:03.415Z,50.40
2022-10-20T11:57:49.025Z,50.90
2022-10-20T12:00:27.154Z,51.20
2022-10-20T12:02:58.751Z,51.60
2022-10-20T12:05:56.778Z,51.80
2022-10-20T12:09:10.749Z,52.10
2022-10-20T12:12:15.061Z,52.40
2022-10-20T12:14:59.721Z,52.80
2022-10-20T12:17:42.490Z,52.60
2022-10-20T12:20:21.953Z,52.60
2022-10-20T12:22:53.730Z,52.90
2022-10-20T12:25:27.309Z,53.00
2022-10-20T12:28:22.962Z,53.10
2022-10-20T12:31:05.285Z,53.30
2022-10-20T12:33:53.333Z,53.40
2022-10-20T12:36:26.601Z,53.40
2022-10-20T12:39:12.186Z,53.50
2022-10-20T12:42:05.260Z,53.60
2022-10-20T12:44:45.644Z,53.80
2022-10-20T12:47:26.923Z,53.80
2022-10-20T12:50:00.958Z,53.90
2022-10-20T12:52:36.148Z,53.90
2022-10-20T12:55:18.595Z,54.00
2022-10-20T12:57:46.891Z,53.80
2022-10-20T13:00:22.126Z,53.80
2022-10-20T13:02:53.160Z,53.80
2022-10-20T13:05:20.337Z,53.80
2022-10-20T13:07:50.099Z,53.90
2022-10-20T13:10:35.504Z,54.20
2022-10-20T13:13:02.696Z,54.40
2022-10-20T13:15:36.227Z,54.60
2022-10-20T13:18:03.458Z,54.70
2022-10-20T13:21:01.563Z,54.90
2022-10-20T13:23:43.438Z,55.00
2022-10-20T13:26:30.859Z,54.90
2022-10-20T13:29:01.878Z,55.00
2022-10-20T13:31:29.939Z,54.80
2022-10-20T13:34:06.228Z,54.90
2022-10-20T13:37:02.104Z,54.90
2022-10-20T13:39:51.043Z,55.00
2022-10-20T13:42:42.534Z,55.20
2022-10-20T13:45:49.959Z,55.30
2022-10-20T13:48:55.419Z,55.40
2022-10-20T13:51:33.702Z,55.60
2022-10-20T13:54:07.133Z,55.60
2022-10-20T13:56:46.389Z,55.80
2022-10-20T14:02:03.857Z,55.90
2022-10-20T14:05:06.007Z,55.90
2022-10-20T14:07:46.010Z,56.00
2022-10-20T14:10:40.293Z,56.10
2022-10-20T14:13:17.615Z,56.30
2022-10-20T14:15:56.940Z,56.40
2022-10-20T14:18:29.493Z,56.50
2022-10-20T14:21:17.992Z,56.50
2022-10-20T14:23:49.287Z,56.50
2022-10-20T14:26:22.706Z,56.60
2022-10-20T14:28:52.218Z,56.70
2022-10-20T14:31:23.811Z,56.90
2022-10-20T14:33:53.059Z,56.90
2022-10-20T14:36:45.213Z,56.90
2022-10-20T14:39:40.823Z,57.00
2022-10-20T14:42:25.883Z,57.20
2022-10-20T14:44:56.997Z,57.40
2022-10-20T14:47:32.550Z,57.50
2022-10-20T14:50:00.450Z,57.50
2022-10-20T14:52:38.337Z,57.70
2022-10-20T14:55:37.561Z,57.80
2022-10-20T14:58:04.807Z,57.80
2022-10-20T15:00:35.671Z,57.80
2022-10-20T15:03:07.202Z,57.90
2022-10-20T15:05:36.699Z,58.00
2022-10-20T15:08:31.631Z,58.10
2022-10-20T15:10:59.322Z,58.20
2022-10-20T15:13:29.884Z,58.20
2022-10-20T15:15:59.788Z,58.40
2022-10-20T15:18:28.515Z,58.60
2022-10-20T15:20:57.315Z,58.80
2022-10-20T15:23:29.035Z,59.20
2022-10-20T15:26:03.137Z,59.30
2022-10-20T15:28:36.779Z,59.60
2022-10-20T15:31:12.856Z,59.60
2022-10-20T15:33:40.953Z,60.20
2022-10-20T15:36:20.050Z,61.00
2022-10-20T15:38:49.697Z,61.60
2022-10-20T15:41:35.679Z,62.70
2022-10-20T15:44:22.285Z,63.40
2022-10-20T15:46:55.799Z,63.90
2022-10-20T15:49:30.470Z,64.20
2022-10-20T15:51:58.106Z,64.60
2022-10-20T15:54:25.641Z,65.00
2022-10-20T15:56:52.935Z,65.50
2022-10-20T15:59:20.425Z,65.50
2022-10-20T16:01:47.613Z,66.00
2022-10-20T16:04:28.035Z,67.00
2022-10-20T16:06:57.931Z,68.20
2022-10-20T16:09:26.528Z,67.30
2022-10-20T16:11:55.243Z,67.20
2022-10-20T16:14:22.462Z,67.30
2022-10-20T16:16:49.899Z,67.40
2022-10-20T16:19:17.325Z,67.60
2022-10-20T16:21:44.606Z,67.90
2022-10-20T16:24:13.225Z,68.00
2022-10-20T16:26:41.798Z,68.20
2022-10-20T16:29:09.471Z,68.50
2022-10-20T16:31:36.739Z,68.70
2022-10-20T16:34:05.367Z,69.00
2022-10-20T16:36:32.788Z,69.10
2022-10-20T16:39:01.418Z,69.30
2022-10-20T16:41:28.772Z,69.50
2022-10-20T16:43:58.865Z,69.80
2022-10-20T16:46:29.462Z,69.90
2022-10-20T16:48:57.443Z,70.20
2022-10-20T16:51:27.653Z,70.40
2022-10-20T16:54:00.785Z,70.40
2022-10-20T16:56:30.493Z,70.70
2022-10-20T16:58:58.006Z,70.90
2022-10-20T17:01:25.472Z,70.90
2022-10-20T17:03:53.558Z,71.00
2022-10-20T17:06:25.694Z,71.20
2022-10-20T17:08:54.419Z,71.30
2022-10-20T17:11:30.574Z,71.40
2022-10-20T17:13:59.668Z,71.50
2022-10-20T17:16:31.939Z,71.60
2022-10-20T17:19:02.120Z,71.80
2022-10-20T17:21:33.896Z,71.90
2022-10-20T17:24:02.334Z,72.00
2022-10-20T17:26:32.086Z,72.10
2022-10-20T17:29:01.462Z,71.90
2022-10-20T17:31:30.066Z,71.90
2022-10-20T17:33:58.845Z,72.10
2022-10-20T17:36:27.319Z,72.10
2022-10-20T17:39:05.650Z,72.10
2022-10-20T17:41:35.989Z,72.30
2022-10-20T17:44:06.300Z,72.60
2022-10-20T17:46:36.740Z,72.60
2022-10-20T17:49:06.012Z,72.50
2022-10-20T17:51:35.281Z,73.40
2022-10-20T17:54:04.398Z,72.80
2022-10-20T17:56:37.011Z,72.90
2022-10-20T17:59:07.489Z,73.00
2022-10-20T18:01:43.068Z,73.20
2022-10-20T18:04:14.500Z,73.30
2022-10-20T18:06:43.461Z,73.30
2022-10-20T18:09:16.819Z,73.30
2022-10-20T18:11:49.901Z,73.40
2022-10-20T18:14:18.097Z,73.30
2022-10-20T18:16:46.143Z,73.30
2022-10-20T18:19:17.697Z,73.30
2022-10-20T18:21:45.490Z,73.40
2022-10-20T18:24:17.077Z,73.50
2022-10-20T18:26:45.835Z,74.20
2022-10-20T18:29:15.027Z,73.50
2022-10-20T18:31:51.006Z,73.50
2022-10-20T18:34:22.310Z,73.50
2022-10-20T18:36:51.637Z,73.50
2022-10-20T18:39:21.338Z,73.50
2022-10-20T18:41:54.188Z,73.40
2022-10-20T18:44:21.897Z,73.50
2022-10-20T18:46:49.524Z,73.50
2022-10-20T18:49:20.564Z,73.60
2022-10-20T18:51:48.515Z,73.70
2022-10-20T18:54:17.462Z,73.80
2022-10-20T18:56:45.133Z,73.90
2022-10-20T18:59:18.829Z,73.90
2022-10-20T19:01:48.415Z,73.90
2022-10-20T19:04:16.302Z,73.90
2022-10-20T19:06:49.627Z,74.00
2022-10-20T19:09:21.751Z,74.00
2022-10-20T19:11:56.735Z,74.00
2022-10-20T19:14:24.221Z,73.90
2022-10-20T19:16:53.147Z,73.70
2022-10-20T19:19:22.791Z,73.70
2022-10-20T19:21:50.020Z,73.70
2022-10-20T19:24:24.015Z,73.60
2022-10-20T19:27:24.959Z,73.60
2022-10-20T19:29:49.979Z,73.60
2022-10-20T19:32:17.842Z,73.60
2022-10-20T19:34:45.455Z,73.50
2022-10-20T19:37:13.630Z,73.50
2022-10-20T19:39:42.883Z,73.50
2022-10-20T19:42:11.232Z,73.30
2022-10-20T19:44:39.217Z,73.20
2022-10-20T19:47:08.085Z,73.10
2022-10-20T19:49:35.958Z,73.10
2022-10-20T19:52:05.880Z,73.50
2022-10-20T19:54:33.391Z,72.80
2022-10-20T19:57:01.079Z,72.70
2022-10-20T19:59:28.380Z,72.70
2022-10-20T20:01:55.730Z,73.00
2022-10-20T20:04:23.069Z,72.30
2022-10-20T20:06:50.467Z,72.10
2022-10-20T20:09:19.712Z,72.00
2022-10-20T20:11:47.000Z,72.00
2022-10-20T20:14:18.737Z,71.80
2022-10-20T20:16:47.262Z,71.70
2022-10-20T20:19:19.829Z,71.80
2022-10-20T20:21:47.347Z,71.70
2022-10-20T20:24:14.903Z,71.60
2022-10-20T20:26:44.636Z,72.30
2022-10-20T20:29:12.009Z,71.60
2022-10-20T20:31:40.992Z,71.50
2022-10-20T20:34:08.413Z,71.50
2022-10-20T20:36:35.663Z,71.50
2022-10-20T20:39:03.747Z,71.30
2022-10-20T20:41:31.313Z,71.30
2022-10-20T20:44:02.933Z,71.30
2022-10-20T20:46:34.105Z,71.30
2022-10-20T20:49:11.094Z,71.30
2022-10-20T20:51:38.505Z,71.10
2022-10-20T20:54:06.150Z,71.00
2022-10-20T20:56:35.503Z,71.10
2022-10-20T20:59:03.625Z,71.10
2022-10-20T21:01:32.196Z,71.10
2022-10-20T21:04:04.459Z,71.10
2022-10-20T21:06:49.514Z,71.20
2022-10-20T21:09:21.975Z,71.10
2022-10-20T21:11:49.383Z,71.10
2022-10-20T21:14:16.805Z,71.00
2022-10-20T21:16:44.082Z,71.00
2022-10-20T21:19:12.120Z,71.10
2022-10-20T21:21:50.529Z,71.00
2022-10-20T21:24:19.022Z,71.00
2022-10-20T21:26:46.964Z,72.10
2022-10-20T21:29:14.335Z,72.00
2022-10-20T21:31:41.725Z,72.10
2022-10-20T21:34:11.095Z,72.20
2022-10-20T21:36:40.666Z,72.30
2022-10-20T21:39:15.491Z,72.20
2022-10-20T21:41:44.885Z,72.30
2022-10-20T21:44:17.254Z,72.20
2022-10-20T21:46:49.509Z,72.30
2022-10-20T21:49:20.652Z,72.20
2022-10-20T21:51:52.608Z,72.30
2022-10-20T21:54:24.458Z,72.30
2022-10-20T21:56:52.720Z,72.40
2022-10-20T21:59:38.827Z,72.40
2022-10-20T22:02:13.601Z,72.40
2022-10-20T22:04:40.821Z,72.50
2022-10-20T22:07:08.199Z,72.40
2022-10-20T22:09:35.776Z,72.50
2022-10-20T22:12:03.281Z,72.60
2022-10-20T22:14:30.890Z,72.70
2022-10-20T22:16:58.753Z,72.70
2022-10-20T22:19:27.459Z,72.70
2022-10-20T22:21:59.754Z,72.80
2022-10-20T22:24:27.906Z,72.80
2022-10-20T22:26:55.233Z,72.80
2022-10-20T22:29:23.447Z,72.80
2022-10-20T22:31:52.597Z,72.90
2022-10-20T22:34:20.246Z,73.00
2022-10-20T22:36:47.743Z,73.00
2022-10-20T22:39:15.210Z,73.00
2022-10-20T22:41:42.620Z,73.10
2022-10-20T22:44:10.917Z,73.00
2022-10-20T22:46:38.195Z,73.10
2022-10-20T22:49:05.551Z,73.20
2022-10-20T22:51:32.722Z,73.20
2022-10-20T22:53:59.937Z,73.90
2022-10-20T22:56:27.288Z,73.30
2022-10-20T22:58:55.143Z,73.30
2022-10-20T23:01:24.014Z,73.20
2022-10-20T23:03:51.869Z,73.40
2022-10-20T23:06:24.290Z,73.40
2022-10-20T23:08:55.367Z,73.50
2022-10-20T23:11:23.904Z,73.50
2022-10-20T23:13:51.336Z,73.60
2022-10-20T23:16:20.679Z,73.60
2022-10-20T23:18:48.228Z,73.60
2022-10-20T23:21:15.887Z,73.70
2022-10-20T23:23:44.220Z,73.90
2022-10-20T23:26:15.173Z,73.80
2022-10-20T23:28:42.517Z,73.70
2022-10-20T23:31:12.508Z,73.70
2022-10-20T23:33:41.627Z,73.70
2022-10-20T23:36:09.606Z,73.70
2022-10-20T23:38:37.458Z,74.40
2022-10-20T23:41:05.360Z,73.70
2022-10-20T23:43:33.579Z,73.80
2022-10-20T23:46:01.291Z,73.80
2022-10-20T23:48:28.784Z,73.90
2022-10-20T23:50:56.477Z,73.90
2022-10-20T23:53:24.842Z,73.90
2022-10-20T23:55:52.087Z,74.00
2022-10-20T23:58:23.183Z,73.90
